Airfield :
LOGIN :

Register | Disclaimer

   EN    FR    IT 

 










Legend :    VFR   Marginal VFR   IFR   Intensive IFR   Very Intensive IFR
Visi :
Ceiling :
>= 8 km
>= 3000ft
5 to 8 km
1000 to 3000 ft
1500m to 5 km
500 to 1000 ft
800 to 1500m
200 to 500 ft
< 800m
< 200 ft
Symbols :   Thunderstorms  Fog  Heavy snow  Heavy precipitations  Wind > 20 kt
SIGMETs :     Misc.  Thunderstorms  Icing  Turbulence  Mountain Waves  Volcanic Ashes






- Airport Elevation : 39 ft
- IATA code : TRS


LIPQ - Friuli Venezia Giulia Apt. Trieste

CURRENT METAR :
  • 101150Z AUTO 20009KT 9999 FEW140/// 15/05 Q1022

EXPIRED METARs :
  • 101120Z AUTO 19008KT 150V220 9999 NCD 15/05 Q1023
  • 101050Z AUTO 20010KT 9999 FEW120/// 14/04 Q1023
  • 101020Z AUTO 18009KT 150V230 9999 NCD 14/04 Q1023
  • 100950Z AUTO 20010KT 180V240 9999 NCD 14/05 Q1023
  • 100920Z AUTO 19009KT 150V220 9999 FEW028/// 14/03 Q1023

TAF TAF LIPQ
Valid from the 10 at 12:00 until the 11 at 12:00 UTC


101100Z 1012/1112 18012KT 9999 SCT030
BECMG 1018/1020 VRB06KT
BECMG 1100/1103 RA BKN014



MET'MAP, your aeronautical weather chart ! - Copyright ORBIFLY December 2007 - Disclaimer

ORBIFLY MET'MAP TEAM :

Programming & Development : Alexandra Zaïnal
Concept & original design : Baudouin d'Aumeries
Assistance for programming : Marc-Olivier Méhu
Technical & hardware support : Manuel Goepfert

Contact : metmap@orbifly.com




SOURCES & CREDITS :

   NOAA